Parker City, Indiana
Current Conditions -  °F | °C
As of 8:53 PM on Sunday 23 Nov 2014 (Local Time) from KMIE Reporting Station
Moderate Rain Moderate Rain  
Wind Chill: 54°   Ceiling: 1300
Heat Index: 54°   Visibility: 4mi
Dew Point: 52°   Wind: 12mph
Humidity: 93%   Direction: 160°SSE
Pressure: 29.3"   Gusts: 21mph
Location:  40.19°N, 85.2°W
Report Text: KMIE 240153Z 16010G18KT 4SM RA BR SCT008 BKN013 OVC024 12/11 A2930 RMK AO2 SLP918 P0024 T01220111
Loading
Personal Weather Stations






























Interactive Weather Map New forecast layout! Learn more

10-Day Weather Forecast

Advertisements
Track Severe Weather on mobile